sensor_id;sensor_type;location;lat;lon;timestamp;P1;durP1;ratioP1;P2;durP2;ratioP2
78885;SDS011;68269;52.514;5.722;2023-08-06T00:00:13;4.93;;;1.45;;
78885;SDS011;68269;52.514;5.722;2023-08-06T00:02:42;5.55;;;1.65;;
78885;SDS011;68269;52.514;5.722;2023-08-06T00:05:11;6.07;;;1.90;;
78885;SDS011;68269;52.514;5.722;2023-08-06T00:07:43;8.85;;;2.25;;
78885;SDS011;68269;52.514;5.722;2023-08-06T00:10:13;5.28;;;1.15;;
78885;SDS011;68269;52.514;5.722;2023-08-06T00:12:42;9.32;;;2.15;;
78885;SDS011;68269;52.514;5.722;2023-08-06T00:15:14;6.78;;;1.77;;
78885;SDS011;68269;52.514;5.722;2023-08-06T00:17:43;9.13;;;2.53;;
78885;SDS011;68269;52.514;5.722;2023-08-06T00:20:13;6.43;;;1.60;;
78885;SDS011;68269;52.514;5.722;2023-08-06T00:22:42;5.80;;;1.48;;
78885;SDS011;68269;52.514;5.722;2023-08-06T00:25:11;7.38;;;2.20;;
78885;SDS011;68269;52.514;5.722;2023-08-06T00:27:41;6.10;;;1.45;;
78885;SDS011;68269;52.514;5.722;2023-08-06T00:30:10;7.43;;;1.92;;
78885;SDS011;68269;52.514;5.722;2023-08-06T00:32:43;8.30;;;2.33;;
78885;SDS011;68269;52.514;5.722;2023-08-06T00:35:13;6.18;;;1.33;;
78885;SDS011;68269;52.514;5.722;2023-08-06T00:37:42;8.10;;;2.60;;
78885;SDS011;68269;52.514;5.722;2023-08-06T00:40:12;6.68;;;1.60;;
78885;SDS011;68269;52.514;5.722;2023-08-06T00:42:41;6.57;;;1.65;;
78885;SDS011;68269;52.514;5.722;2023-08-06T00:45:11;7.47;;;2.53;;
78885;SDS011;68269;52.514;5.722;2023-08-06T00:47:44;8.00;;;2.22;;
78885;SDS011;68269;52.514;5.722;2023-08-06T00:50:14;6.80;;;2.13;;
78885;SDS011;68269;52.514;5.722;2023-08-06T00:52:44;8.88;;;2.45;;
78885;SDS011;68269;52.514;5.722;2023-08-06T00:55:13;5.90;;;1.60;;
78885;SDS011;68269;52.514;5.722;2023-08-06T00:57:43;9.52;;;2.35;;
78885;SDS011;68269;52.514;5.722;2023-08-06T01:00:16;5.40;;;1.35;;
78885;SDS011;68269;52.514;5.722;2023-08-06T01:02:45;6.65;;;1.75;;
78885;SDS011;68269;52.514;5.722;2023-08-06T01:05:15;9.45;;;2.30;;
78885;SDS011;68269;52.514;5.722;2023-08-06T01:07:47;8.15;;;1.95;;
78885;SDS011;68269;52.514;5.722;2023-08-06T01:10:34;6.47;;;1.63;;
78885;SDS011;68269;52.514;5.722;2023-08-06T01:13:16;5.50;;;1.40;;
78885;SDS011;68269;52.514;5.722;2023-08-06T01:15:55;5.80;;;1.40;;
78885;SDS011;68269;52.514;5.722;2023-08-06T01:18:26;8.25;;;2.50;;
78885;SDS011;68269;52.514;5.722;2023-08-06T01:20:58;6.38;;;1.80;;
78885;SDS011;68269;52.514;5.722;2023-08-06T01:23:28;5.63;;;1.58;;
78885;SDS011;68269;52.514;5.722;2023-08-06T01:25:59;4.93;;;1.17;;
78885;SDS011;68269;52.514;5.722;2023-08-06T01:28:37;6.80;;;1.60;;
78885;SDS011;68269;52.514;5.722;2023-08-06T01:31:14;6.50;;;1.48;;
78885;SDS011;68269;52.514;5.722;2023-08-06T01:33:47;6.70;;;2.00;;
78885;SDS011;68269;52.514;5.722;2023-08-06T01:36:20;7.18;;;1.60;;
78885;SDS011;68269;52.514;5.722;2023-08-06T01:38:50;6.97;;;1.83;;
78885;SDS011;68269;52.514;5.722;2023-08-06T01:41:20;6.63;;;1.83;;
78885;SDS011;68269;52.514;5.722;2023-08-06T01:43:50;7.47;;;2.40;;
78885;SDS011;68269;52.514;5.722;2023-08-06T01:46:19;8.27;;;2.58;;
78885;SDS011;68269;52.514;5.722;2023-08-06T01:48:48;10.18;;;2.88;;
78885;SDS011;68269;52.514;5.722;2023-08-06T01:51:20;6.88;;;1.88;;
78885;SDS011;68269;52.514;5.722;2023-08-06T01:53:50;7.07;;;2.33;;
78885;SDS011;68269;52.514;5.722;2023-08-06T01:56:19;6.93;;;1.98;;
78885;SDS011;68269;52.514;5.722;2023-08-06T01:58:48;8.63;;;2.35;;
78885;SDS011;68269;52.514;5.722;2023-08-06T02:01:17;7.38;;;2.72;;
78885;SDS011;68269;52.514;5.722;2023-08-06T02:03:47;7.82;;;2.40;;
78885;SDS011;68269;52.514;5.722;2023-08-06T02:06:16;5.63;;;1.27;;
78885;SDS011;68269;52.514;5.722;2023-08-06T02:08:48;6.75;;;1.77;;
78885;SDS011;68269;52.514;5.722;2023-08-06T02:11:17;7.40;;;2.33;;
78885;SDS011;68269;52.514;5.722;2023-08-06T02:13:46;7.90;;;1.88;;
78885;SDS011;68269;52.514;5.722;2023-08-06T02:16:18;5.35;;;1.60;;
78885;SDS011;68269;52.514;5.722;2023-08-06T02:18:48;6.53;;;2.08;;
78885;SDS011;68269;52.514;5.722;2023-08-06T02:21:17;6.82;;;2.28;;
78885;SDS011;68269;52.514;5.722;2023-08-06T02:23:49;6.78;;;1.55;;
78885;SDS011;68269;52.514;5.722;2023-08-06T02:26:19;7.70;;;2.42;;
78885;SDS011;68269;52.514;5.722;2023-08-06T02:28:48;6.35;;;1.42;;
78885;SDS011;68269;52.514;5.722;2023-08-06T02:31:17;5.88;;;1.75;;
78885;SDS011;68269;52.514;5.722;2023-08-06T02:33:47;8.02;;;1.85;;
78885;SDS011;68269;52.514;5.722;2023-08-06T02:36:17;9.73;;;2.50;;
78885;SDS011;68269;52.514;5.722;2023-08-06T02:38:46;6.40;;;1.75;;
78885;SDS011;68269;52.514;5.722;2023-08-06T02:41:18;6.25;;;1.50;;
78885;SDS011;68269;52.514;5.722;2023-08-06T02:43:48;6.40;;;1.83;;
78885;SDS011;68269;52.514;5.722;2023-08-06T02:46:17;7.55;;;1.58;;
78885;SDS011;68269;52.514;5.722;2023-08-06T02:48:46;6.15;;;1.70;;
78885;SDS011;68269;52.514;5.722;2023-08-06T02:51:16;6.72;;;1.73;;
78885;SDS011;68269;52.514;5.722;2023-08-06T02:53:50;7.25;;;2.00;;
78885;SDS011;68269;52.514;5.722;2023-08-06T02:56:20;5.03;;;1.20;;
78885;SDS011;68269;52.514;5.722;2023-08-06T02:58:59;5.80;;;1.63;;
78885;SDS011;68269;52.514;5.722;2023-08-06T03:01:51;4.45;;;1.17;;
78885;SDS011;68269;52.514;5.722;2023-08-06T03:04:28;8.73;;;2.00;;
78885;SDS011;68269;52.514;5.722;2023-08-06T03:06:58;7.15;;;1.20;;
78885;SDS011;68269;52.514;5.722;2023-08-06T03:09:38;7.70;;;1.63;;
78885;SDS011;68269;52.514;5.722;2023-08-06T03:12:08;5.53;;;1.13;;
78885;SDS011;68269;52.514;5.722;2023-08-06T03:14:38;6.50;;;1.40;;
78885;SDS011;68269;52.514;5.722;2023-08-06T03:17:09;4.20;;;1.20;;
78885;SDS011;68269;52.514;5.722;2023-08-06T03:19:38;5.97;;;1.45;;
78885;SDS011;68269;52.514;5.722;2023-08-06T03:22:08;7.25;;;1.80;;
78885;SDS011;68269;52.514;5.722;2023-08-06T03:24:41;5.45;;;1.30;;
78885;SDS011;68269;52.514;5.722;2023-08-06T03:27:10;8.75;;;2.08;;
78885;SDS011;68269;52.514;5.722;2023-08-06T03:29:41;6.50;;;1.75;;
78885;SDS011;68269;52.514;5.722;2023-08-06T03:32:11;8.70;;;2.70;;
78885;SDS011;68269;52.514;5.722;2023-08-06T03:34:41;8.35;;;2.00;;
78885;SDS011;68269;52.514;5.722;2023-08-06T03:37:11;7.97;;;1.70;;
78885;SDS011;68269;52.514;5.722;2023-08-06T03:39:43;7.68;;;2.63;;
78885;SDS011;68269;52.514;5.722;2023-08-06T03:42:12;7.43;;;1.95;;
78885;SDS011;68269;52.514;5.722;2023-08-06T03:44:41;8.77;;;1.60;;
78885;SDS011;68269;52.514;5.722;2023-08-06T03:47:11;6.25;;;1.25;;
78885;SDS011;68269;52.514;5.722;2023-08-06T03:49:40;7.75;;;2.28;;
78885;SDS011;68269;52.514;5.722;2023-08-06T03:52:09;7.50;;;2.22;;
78885;SDS011;68269;52.514;5.722;2023-08-06T03:54:42;6.15;;;1.30;;
78885;SDS011;68269;52.514;5.722;2023-08-06T03:57:12;7.35;;;2.17;;
78885;SDS011;68269;52.514;5.722;2023-08-06T03:59:41;7.20;;;2.03;;
78885;SDS011;68269;52.514;5.722;2023-08-06T04:02:11;5.78;;;1.50;;
78885;SDS011;68269;52.514;5.722;2023-08-06T04:04:40;6.20;;;1.55;;
78885;SDS011;68269;52.514;5.722;2023-08-06T04:07:09;8.48;;;1.90;;
78885;SDS011;68269;52.514;5.722;2023-08-06T04:09:53;6.47;;;1.95;;
78885;SDS011;68269;52.514;5.722;2023-08-06T04:12:25;6.25;;;1.40;;
78885;SDS011;68269;52.514;5.722;2023-08-06T04:14:55;8.32;;;2.42;;
78885;SDS011;68269;52.514;5.722;2023-08-06T04:17:26;6.07;;;1.60;;
78885;SDS011;68269;52.514;5.722;2023-08-06T04:19:55;5.75;;;1.25;;
78885;SDS011;68269;52.514;5.722;2023-08-06T04:22:24;7.35;;;2.22;;
78885;SDS011;68269;52.514;5.722;2023-08-06T04:24:56;8.38;;;2.88;;
78885;SDS011;68269;52.514;5.722;2023-08-06T04:27:26;6.53;;;1.90;;
78885;SDS011;68269;52.514;5.722;2023-08-06T04:29:55;7.90;;;2.65;;
78885;SDS011;68269;52.514;5.722;2023-08-06T04:32:25;6.47;;;2.00;;
78885;SDS011;68269;52.514;5.722;2023-08-06T04:34:55;5.68;;;1.63;;
78885;SDS011;68269;52.514;5.722;2023-08-06T04:37:25;8.50;;;2.30;;
78885;SDS011;68269;52.514;5.722;2023-08-06T04:39:56;10.88;;;2.50;;
78885;SDS011;68269;52.514;5.722;2023-08-06T04:42:26;8.90;;;1.90;;
78885;SDS011;68269;52.514;5.722;2023-08-06T04:44:55;7.40;;;2.08;;
78885;SDS011;68269;52.514;5.722;2023-08-06T04:47:24;6.70;;;1.50;;
78885;SDS011;68269;52.514;5.722;2023-08-06T04:49:54;5.45;;;1.42;;
78885;SDS011;68269;52.514;5.722;2023-08-06T04:52:23;7.05;;;2.25;;
78885;SDS011;68269;52.514;5.722;2023-08-06T04:54:54;12.75;;;3.28;;
78885;SDS011;68269;52.514;5.722;2023-08-06T04:57:26;7.80;;;1.90;;
78885;SDS011;68269;52.514;5.722;2023-08-06T04:59:55;7.45;;;2.08;;
78885;SDS011;68269;52.514;5.722;2023-08-06T05:02:24;5.80;;;1.70;;
78885;SDS011;68269;52.514;5.722;2023-08-06T05:04:53;8.13;;;1.85;;
78885;SDS011;68269;52.514;5.722;2023-08-06T05:07:23;6.32;;;1.67;;
78885;SDS011;68269;52.514;5.722;2023-08-06T05:09:52;8.65;;;3.30;;
78885;SDS011;68269;52.514;5.722;2023-08-06T05:12:24;6.78;;;1.77;;
78885;SDS011;68269;52.514;5.722;2023-08-06T05:14:53;8.23;;;2.65;;
78885;SDS011;68269;52.514;5.722;2023-08-06T05:17:23;10.35;;;2.70;;
78885;SDS011;68269;52.514;5.722;2023-08-06T05:19:52;8.18;;;2.90;;
78885;SDS011;68269;52.514;5.722;2023-08-06T05:22:21;5.85;;;1.20;;
78885;SDS011;68269;52.514;5.722;2023-08-06T05:24:50;11.25;;;3.05;;
78885;SDS011;68269;52.514;5.722;2023-08-06T05:27:20;6.97;;;1.58;;
78885;SDS011;68269;52.514;5.722;2023-08-06T05:29:54;9.05;;;2.83;;
78885;SDS011;68269;52.514;5.722;2023-08-06T05:32:24;7.50;;;2.00;;
78885;SDS011;68269;52.514;5.722;2023-08-06T05:34:53;12.77;;;3.95;;
78885;SDS011;68269;52.514;5.722;2023-08-06T05:37:22;8.68;;;2.55;;
78885;SDS011;68269;52.514;5.722;2023-08-06T05:39:52;7.32;;;2.35;;
78885;SDS011;68269;52.514;5.722;2023-08-06T05:42:21;9.10;;;2.47;;
78885;SDS011;68269;52.514;5.722;2023-08-06T05:44:53;9.07;;;3.00;;
78885;SDS011;68269;52.514;5.722;2023-08-06T05:47:22;7.18;;;2.28;;
78885;SDS011;68269;52.514;5.722;2023-08-06T05:49:51;11.48;;;3.03;;
78885;SDS011;68269;52.514;5.722;2023-08-06T05:52:21;9.68;;;3.10;;
78885;SDS011;68269;52.514;5.722;2023-08-06T05:54:50;8.95;;;2.80;;
78885;SDS011;68269;52.514;5.722;2023-08-06T05:57:20;7.75;;;2.22;;
78885;SDS011;68269;52.514;5.722;2023-08-06T05:59:52;9.88;;;3.72;;
78885;SDS011;68269;52.514;5.722;2023-08-06T06:02:22;9.13;;;3.22;;
78885;SDS011;68269;52.514;5.722;2023-08-06T06:04:51;8.68;;;2.88;;
78885;SDS011;68269;52.514;5.722;2023-08-06T06:07:20;6.43;;;2.00;;
78885;SDS011;68269;52.514;5.722;2023-08-06T06:09:50;10.43;;;2.97;;
78885;SDS011;68269;52.514;5.722;2023-08-06T06:12:19;9.10;;;3.13;;
78885;SDS011;68269;52.514;5.722;2023-08-06T06:14:48;10.18;;;3.63;;
78885;SDS011;68269;52.514;5.722;2023-08-06T06:17:20;9.30;;;2.83;;
78885;SDS011;68269;52.514;5.722;2023-08-06T06:19:50;12.15;;;4.55;;
78885;SDS011;68269;52.514;5.722;2023-08-06T06:22:19;10.70;;;3.03;;
78885;SDS011;68269;52.514;5.722;2023-08-06T06:24:48;11.27;;;2.85;;
78885;SDS011;68269;52.514;5.722;2023-08-06T06:27:17;12.93;;;4.15;;
78885;SDS011;68269;52.514;5.722;2023-08-06T06:29:47;9.50;;;3.30;;
78885;SDS011;68269;52.514;5.722;2023-08-06T06:32:20;9.65;;;3.80;;
78885;SDS011;68269;52.514;5.722;2023-08-06T06:34:50;11.88;;;3.05;;
78885;SDS011;68269;52.514;5.722;2023-08-06T06:37:20;8.50;;;2.75;;
78885;SDS011;68269;52.514;5.722;2023-08-06T06:39:49;9.82;;;3.30;;
78885;SDS011;68269;52.514;5.722;2023-08-06T06:42:18;15.27;;;4.30;;
78885;SDS011;68269;52.514;5.722;2023-08-06T06:44:51;9.25;;;3.42;;
78885;SDS011;68269;52.514;5.722;2023-08-06T06:47:23;10.40;;;3.30;;
78885;SDS011;68269;52.514;5.722;2023-08-06T06:49:52;13.75;;;3.83;;
78885;SDS011;68269;52.514;5.722;2023-08-06T06:52:21;9.85;;;3.30;;
78885;SDS011;68269;52.514;5.722;2023-08-06T06:54:51;10.60;;;3.70;;
78885;SDS011;68269;52.514;5.722;2023-08-06T06:57:20;9.10;;;3.15;;
78885;SDS011;68269;52.514;5.722;2023-08-06T06:59:49;11.27;;;3.83;;
78885;SDS011;68269;52.514;5.722;2023-08-06T07:02:19;10.20;;;3.45;;
78885;SDS011;68269;52.514;5.722;2023-08-06T07:04:51;10.30;;;3.28;;
78885;SDS011;68269;52.514;5.722;2023-08-06T07:07:20;9.93;;;3.53;;
78885;SDS011;68269;52.514;5.722;2023-08-06T07:09:49;11.73;;;4.15;;
78885;SDS011;68269;52.514;5.722;2023-08-06T07:12:19;11.77;;;4.28;;
78885;SDS011;68269;52.514;5.722;2023-08-06T07:14:49;12.00;;;3.47;;
78885;SDS011;68269;52.514;5.722;2023-08-06T07:17:19;9.63;;;3.20;;
78885;SDS011;68269;52.514;5.722;2023-08-06T07:19:50;10.13;;;3.13;;
78885;SDS011;68269;52.514;5.722;2023-08-06T07:22:20;9.93;;;3.03;;
78885;SDS011;68269;52.514;5.722;2023-08-06T07:24:49;13.70;;;3.90;;
78885;SDS011;68269;52.514;5.722;2023-08-06T07:27:18;11.23;;;4.00;;
78885;SDS011;68269;52.514;5.722;2023-08-06T07:29:48;8.38;;;2.30;;
78885;SDS011;68269;52.514;5.722;2023-08-06T07:32:17;9.57;;;2.63;;
78885;SDS011;68269;52.514;5.722;2023-08-06T07:34:46;9.88;;;3.25;;
78885;SDS011;68269;52.514;5.722;2023-08-06T07:37:18;9.32;;;3.30;;
78885;SDS011;68269;52.514;5.722;2023-08-06T07:39:48;12.05;;;4.45;;
78885;SDS011;68269;52.514;5.722;2023-08-06T07:42:17;12.40;;;3.85;;
78885;SDS011;68269;52.514;5.722;2023-08-06T07:44:49;11.85;;;4.00;;
78885;SDS011;68269;52.514;5.722;2023-08-06T07:47:20;11.52;;;2.97;;
78885;SDS011;68269;52.514;5.722;2023-08-06T07:49:50;15.48;;;4.30;;
78885;SDS011;68269;52.514;5.722;2023-08-06T07:52:23;11.20;;;4.32;;
78885;SDS011;68269;52.514;5.722;2023-08-06T07:54:52;11.77;;;4.18;;
78885;SDS011;68269;52.514;5.722;2023-08-06T07:57:22;12.80;;;4.13;;
78885;SDS011;68269;52.514;5.722;2023-08-06T07:59:51;10.05;;;3.95;;
78885;SDS011;68269;52.514;5.722;2023-08-06T08:02:20;9.77;;;3.30;;
78885;SDS011;68269;52.514;5.722;2023-08-06T08:04:50;11.93;;;4.75;;
78885;SDS011;68269;52.514;5.722;2023-08-06T08:07:20;15.70;;;4.15;;
78885;SDS011;68269;52.514;5.722;2023-08-06T08:09:54;10.63;;;4.00;;
78885;SDS011;68269;52.514;5.722;2023-08-06T08:12:23;11.00;;;3.80;;
78885;SDS011;68269;52.514;5.722;2023-08-06T08:14:52;13.73;;;5.50;;
78885;SDS011;68269;52.514;5.722;2023-08-06T08:17:21;12.75;;;4.95;;
78885;SDS011;68269;52.514;5.722;2023-08-06T08:19:51;13.18;;;5.90;;
78885;SDS011;68269;52.514;5.722;2023-08-06T08:22:23;14.35;;;5.80;;
78885;SDS011;68269;52.514;5.722;2023-08-06T08:24:52;14.13;;;5.15;;
78885;SDS011;68269;52.514;5.722;2023-08-06T08:27:21;11.95;;;4.32;;
78885;SDS011;68269;52.514;5.722;2023-08-06T08:29:51;15.38;;;5.57;;
78885;SDS011;68269;52.514;5.722;2023-08-06T08:32:21;14.60;;;5.18;;
78885;SDS011;68269;52.514;5.722;2023-08-06T08:34:50;14.48;;;6.15;;
78885;SDS011;68269;52.514;5.722;2023-08-06T08:37:19;14.30;;;5.32;;
78885;SDS011;68269;52.514;5.722;2023-08-06T08:39:51;14.10;;;5.90;;
78885;SDS011;68269;52.514;5.722;2023-08-06T08:42:21;13.60;;;4.88;;
78885;SDS011;68269;52.514;5.722;2023-08-06T08:44:50;14.25;;;5.65;;
78885;SDS011;68269;52.514;5.722;2023-08-06T08:47:21;13.20;;;5.70;;
78885;SDS011;68269;52.514;5.722;2023-08-06T08:49:51;12.38;;;5.20;;
78885;SDS011;68269;52.514;5.722;2023-08-06T08:52:25;12.05;;;5.47;;
78885;SDS011;68269;52.514;5.722;2023-08-06T08:54:56;12.45;;;4.25;;
78885;SDS011;68269;52.514;5.722;2023-08-06T08:57:26;16.17;;;5.97;;
78885;SDS011;68269;52.514;5.722;2023-08-06T08:59:56;13.13;;;5.68;;
78885;SDS011;68269;52.514;5.722;2023-08-06T09:02:26;11.57;;;4.93;;
78885;SDS011;68269;52.514;5.722;2023-08-06T09:04:59;13.10;;;5.60;;
78885;SDS011;68269;52.514;5.722;2023-08-06T09:07:35;12.60;;;4.65;;
78885;SDS011;68269;52.514;5.722;2023-08-06T09:10:08;13.75;;;5.22;;
78885;SDS011;68269;52.514;5.722;2023-08-06T09:12:39;13.35;;;5.72;;
78885;SDS011;68269;52.514;5.722;2023-08-06T09:15:10;13.00;;;5.50;;
78885;SDS011;68269;52.514;5.722;2023-08-06T09:17:39;12.00;;;4.95;;
78885;SDS011;68269;52.514;5.722;2023-08-06T09:20:10;13.15;;;5.07;;
78885;SDS011;68269;52.514;5.722;2023-08-06T09:22:43;10.93;;;4.72;;
78885;SDS011;68269;52.514;5.722;2023-08-06T09:25:13;10.88;;;4.22;;
78885;SDS011;68269;52.514;5.722;2023-08-06T09:27:50;11.63;;;4.75;;
78885;SDS011;68269;52.514;5.722;2023-08-06T09:30:29;14.20;;;5.05;;
78885;SDS011;68269;52.514;5.722;2023-08-06T09:32:59;14.38;;;5.00;;
78885;SDS011;68269;52.514;5.722;2023-08-06T09:35:29;13.20;;;5.40;;
78885;SDS011;68269;52.514;5.722;2023-08-06T09:38:08;10.73;;;4.60;;
78885;SDS011;68269;52.514;5.722;2023-08-06T09:40:39;12.45;;;4.90;;
78885;SDS011;68269;52.514;5.722;2023-08-06T09:43:09;13.00;;;5.10;;
78885;SDS011;68269;52.514;5.722;2023-08-06T09:45:41;10.32;;;4.07;;
78885;SDS011;68269;52.514;5.722;2023-08-06T09:48:11;15.18;;;5.75;;
78885;SDS011;68269;52.514;5.722;2023-08-06T09:50:41;13.25;;;6.00;;
78885;SDS011;68269;52.514;5.722;2023-08-06T09:53:13;12.88;;;4.75;;
78885;SDS011;68269;52.514;5.722;2023-08-06T09:55:44;13.57;;;5.00;;
78885;SDS011;68269;52.514;5.722;2023-08-06T09:58:14;14.30;;;5.43;;
78885;SDS011;68269;52.514;5.722;2023-08-06T10:00:43;11.10;;;4.20;;
78885;SDS011;68269;52.514;5.722;2023-08-06T10:03:13;15.05;;;5.55;;
78885;SDS011;68269;52.514;5.722;2023-08-06T10:05:43;14.20;;;5.43;;
78885;SDS011;68269;52.514;5.722;2023-08-06T10:08:16;12.80;;;5.28;;
78885;SDS011;68269;52.514;5.722;2023-08-06T10:10:45;11.55;;;5.13;;
78885;SDS011;68269;52.514;5.722;2023-08-06T10:13:15;13.98;;;4.30;;
78885;SDS011;68269;52.514;5.722;2023-08-06T10:15:46;10.30;;;3.58;;
78885;SDS011;68269;52.514;5.722;2023-08-06T10:18:15;11.55;;;4.40;;
78885;SDS011;68269;52.514;5.722;2023-08-06T10:20:48;13.27;;;5.13;;
78885;SDS011;68269;52.514;5.722;2023-08-06T10:23:20;11.82;;;4.10;;
78885;SDS011;68269;52.514;5.722;2023-08-06T10:26:04;11.85;;;4.57;;
78885;SDS011;68269;52.514;5.722;2023-08-06T10:28:33;10.20;;;3.22;;
78885;SDS011;68269;52.514;5.722;2023-08-06T10:31:04;12.02;;;4.90;;
78885;SDS011;68269;52.514;5.722;2023-08-06T10:33:40;11.20;;;4.40;;
78885;SDS011;68269;52.514;5.722;2023-08-06T10:36:08;11.25;;;4.15;;
78885;SDS011;68269;52.514;5.722;2023-08-06T10:38:47;10.20;;;3.88;;
78885;SDS011;68269;52.514;5.722;2023-08-06T10:41:27;12.85;;;5.03;;
78885;SDS011;68269;52.514;5.722;2023-08-06T10:44:05;14.57;;;6.55;;
78885;SDS011;68269;52.514;5.722;2023-08-06T10:49:05;11.07;;;4.60;;
78885;SDS011;68269;52.514;5.722;2023-08-06T10:51:34;13.30;;;5.32;;
78885;SDS011;68269;52.514;5.722;2023-08-06T10:54:07;9.88;;;4.10;;
78885;SDS011;68269;52.514;5.722;2023-08-06T10:56:39;11.93;;;4.05;;
78885;SDS011;68269;52.514;5.722;2023-08-06T10:59:10;12.52;;;3.83;;
78885;SDS011;68269;52.514;5.722;2023-08-06T11:01:43;13.85;;;4.55;;
78885;SDS011;68269;52.514;5.722;2023-08-06T11:04:12;14.00;;;4.68;;
78885;SDS011;68269;52.514;5.722;2023-08-06T11:06:42;10.75;;;4.28;;
78885;SDS011;68269;52.514;5.722;2023-08-06T11:09:14;12.95;;;5.53;;
78885;SDS011;68269;52.514;5.722;2023-08-06T11:11:47;11.85;;;3.60;;
78885;SDS011;68269;52.514;5.722;2023-08-06T11:14:16;9.88;;;3.08;;
78885;SDS011;68269;52.514;5.722;2023-08-06T11:16:45;9.82;;;3.53;;
78885;SDS011;68269;52.514;5.722;2023-08-06T11:19:16;11.95;;;4.30;;
78885;SDS011;68269;52.514;5.722;2023-08-06T11:21:45;8.95;;;3.22;;
78885;SDS011;68269;52.514;5.722;2023-08-06T11:24:17;10.27;;;3.28;;
78885;SDS011;68269;52.514;5.722;2023-08-06T11:26:46;13.07;;;4.78;;
78885;SDS011;68269;52.514;5.722;2023-08-06T11:29:16;11.00;;;4.35;;
78885;SDS011;68269;52.514;5.722;2023-08-06T11:31:45;8.32;;;2.90;;
78885;SDS011;68269;52.514;5.722;2023-08-06T11:34:14;11.23;;;4.80;;
78885;SDS011;68269;52.514;5.722;2023-08-06T11:36:44;12.00;;;4.13;;
78885;SDS011;68269;52.514;5.722;2023-08-06T11:39:16;10.20;;;2.42;;
78885;SDS011;68269;52.514;5.722;2023-08-06T11:41:46;9.30;;;3.85;;
78885;SDS011;68269;52.514;5.722;2023-08-06T11:44:18;8.75;;;2.88;;
78885;SDS011;68269;52.514;5.722;2023-08-06T11:46:51;9.75;;;3.30;;
78885;SDS011;68269;52.514;5.722;2023-08-06T11:54:41;5.43;;;1.50;;
78885;SDS011;68269;52.514;5.722;2023-08-06T11:57:11;6.38;;;1.30;;
78885;SDS011;68269;52.514;5.722;2023-08-06T11:59:41;6.53;;;2.05;;
78885;SDS011;68269;52.514;5.722;2023-08-06T12:02:10;6.40;;;1.65;;
78885;SDS011;68269;52.514;5.722;2023-08-06T12:04:58;7.70;;;2.17;;
78885;SDS011;68269;52.514;5.722;2023-08-06T12:07:28;5.88;;;1.30;;
78885;SDS011;68269;52.514;5.722;2023-08-06T12:10:01;3.75;;;1.02;;
78885;SDS011;68269;52.514;5.722;2023-08-06T12:12:30;4.00;;;1.10;;
78885;SDS011;68269;52.514;5.722;2023-08-06T12:14:59;4.10;;;1.10;;
78885;SDS011;68269;52.514;5.722;2023-08-06T12:17:29;4.65;;;1.05;;
78885;SDS011;68269;52.514;5.722;2023-08-06T12:19:58;2.30;;;0.93;;
78885;SDS011;68269;52.514;5.722;2023-08-06T12:22:28;3.67;;;1.00;;
78885;SDS011;68269;52.514;5.722;2023-08-06T12:25:03;2.45;;;0.77;;
78885;SDS011;68269;52.514;5.722;2023-08-06T12:27:34;2.97;;;0.90;;
78885;SDS011;68269;52.514;5.722;2023-08-06T12:30:04;6.22;;;0.80;;
78885;SDS011;68269;52.514;5.722;2023-08-06T12:32:34;3.50;;;0.82;;
78885;SDS011;68269;52.514;5.722;2023-08-06T12:35:04;4.25;;;0.73;;
78885;SDS011;68269;52.514;5.722;2023-08-06T12:37:35;2.95;;;0.85;;
78885;SDS011;68269;52.514;5.722;2023-08-06T12:40:08;3.20;;;0.70;;
78885;SDS011;68269;52.514;5.722;2023-08-06T12:42:38;3.40;;;0.80;;
78885;SDS011;68269;52.514;5.722;2023-08-06T12:45:08;2.95;;;0.65;;
78885;SDS011;68269;52.514;5.722;2023-08-06T12:47:37;2.85;;;0.73;;
78885;SDS011;68269;52.514;5.722;2023-08-06T12:50:07;3.03;;;0.70;;
78885;SDS011;68269;52.514;5.722;2023-08-06T12:52:37;5.13;;;0.85;;
78885;SDS011;68269;52.514;5.722;2023-08-06T12:55:09;2.25;;;0.60;;
78885;SDS011;68269;52.514;5.722;2023-08-06T12:57:38;1.75;;;0.60;;
78885;SDS011;68269;52.514;5.722;2023-08-06T13:00:08;2.20;;;0.60;;
78885;SDS011;68269;52.514;5.722;2023-08-06T13:02:38;2.17;;;0.60;;
78885;SDS011;68269;52.514;5.722;2023-08-06T13:05:07;2.25;;;0.43;;
78885;SDS011;68269;52.514;5.722;2023-08-06T13:07:36;3.38;;;0.50;;
78885;SDS011;68269;52.514;5.722;2023-08-06T13:10:09;2.10;;;0.70;;
78885;SDS011;68269;52.514;5.722;2023-08-06T13:12:38;2.22;;;0.47;;
78885;SDS011;68269;52.514;5.722;2023-08-06T13:15:08;3.28;;;0.60;;
78885;SDS011;68269;52.514;5.722;2023-08-06T13:17:37;3.28;;;0.77;;
78885;SDS011;68269;52.514;5.722;2023-08-06T13:20:07;3.22;;;0.70;;
78885;SDS011;68269;52.514;5.722;2023-08-06T13:22:37;1.30;;;0.32;;
78885;SDS011;68269;52.514;5.722;2023-08-06T13:25:09;0.73;;;0.30;;
78885;SDS011;68269;52.514;5.722;2023-08-06T13:27:40;1.83;;;0.38;;
78885;SDS011;68269;52.514;5.722;2023-08-06T13:30:10;4.20;;;0.50;;
78885;SDS011;68269;52.514;5.722;2023-08-06T13:32:39;1.35;;;0.22;;
78885;SDS011;68269;52.514;5.722;2023-08-06T13:35:09;2.25;;;0.50;;
78885;SDS011;68269;52.514;5.722;2023-08-06T13:37:38;2.05;;;0.40;;
78885;SDS011;68269;52.514;5.722;2023-08-06T13:40:06;1.52;;;0.30;;
78885;SDS011;68269;52.514;5.722;2023-08-06T13:42:38;1.25;;;0.32;;
78885;SDS011;68269;52.514;5.722;2023-08-06T13:45:08;0.70;;;0.22;;
78885;SDS011;68269;52.514;5.722;2023-08-06T13:47:38;2.25;;;0.30;;
78885;SDS011;68269;52.514;5.722;2023-08-06T13:50:08;1.92;;;0.43;;
78885;SDS011;68269;52.514;5.722;2023-08-06T13:52:37;1.17;;;0.40;;
78885;SDS011;68269;52.514;5.722;2023-08-06T13:55:09;0.95;;;0.30;;
78885;SDS011;68269;52.514;5.722;2023-08-06T13:57:39;1.30;;;0.22;;
78885;SDS011;68269;52.514;5.722;2023-08-06T14:00:08;1.88;;;0.35;;
78885;SDS011;68269;52.514;5.722;2023-08-06T14:02:39;0.90;;;0.25;;
78885;SDS011;68269;52.514;5.722;2023-08-06T14:05:09;3.53;;;0.40;;
78885;SDS011;68269;52.514;5.722;2023-08-06T14:07:39;1.25;;;0.30;;
78885;SDS011;68269;52.514;5.722;2023-08-06T14:10:10;1.85;;;0.30;;
78885;SDS011;68269;52.514;5.722;2023-08-06T14:12:40;1.83;;;0.50;;
78885;SDS011;68269;52.514;5.722;2023-08-06T14:15:10;1.95;;;0.45;;
78885;SDS011;68269;52.514;5.722;2023-08-06T14:17:40;1.35;;;0.30;;
78885;SDS011;68269;52.514;5.722;2023-08-06T14:20:09;2.22;;;0.50;;
78885;SDS011;68269;52.514;5.722;2023-08-06T14:22:39;1.55;;;0.52;;
78885;SDS011;68269;52.514;5.722;2023-08-06T14:25:11;3.28;;;0.57;;
78885;SDS011;68269;52.514;5.722;2023-08-06T14:27:40;1.35;;;0.40;;
78885;SDS011;68269;52.514;5.722;2023-08-06T14:30:10;1.92;;;0.57;;
78885;SDS011;68269;52.514;5.722;2023-08-06T14:32:40;3.28;;;0.82;;
78885;SDS011;68269;52.514;5.722;2023-08-06T14:35:09;2.78;;;0.50;;
78885;SDS011;68269;52.514;5.722;2023-08-06T14:37:39;1.58;;;0.55;;
78885;SDS011;68269;52.514;5.722;2023-08-06T14:40:11;4.05;;;0.55;;
78885;SDS011;68269;52.514;5.722;2023-08-06T14:42:40;2.70;;;0.57;;
78885;SDS011;68269;52.514;5.722;2023-08-06T14:45:09;2.60;;;0.73;;
78885;SDS011;68269;52.514;5.722;2023-08-06T14:47:39;3.00;;;0.55;;
78885;SDS011;68269;52.514;5.722;2023-08-06T14:50:08;2.22;;;0.55;;
78885;SDS011;68269;52.514;5.722;2023-08-06T14:52:38;3.65;;;0.77;;
78885;SDS011;68269;52.514;5.722;2023-08-06T14:55:07;3.28;;;0.52;;
78885;SDS011;68269;52.514;5.722;2023-08-06T14:57:39;2.53;;;0.60;;
78885;SDS011;68269;52.514;5.722;2023-08-06T15:00:09;2.33;;;0.50;;
78885;SDS011;68269;52.514;5.722;2023-08-06T15:02:39;4.10;;;0.82;;
78885;SDS011;68269;52.514;5.722;2023-08-06T15:05:09;3.28;;;0.50;;
78885;SDS011;68269;52.514;5.722;2023-08-06T15:07:38;4.53;;;1.17;;
78885;SDS011;68269;52.514;5.722;2023-08-06T15:10:07;4.15;;;0.73;;